sensor_id;sensor_type;location;lat;lon;timestamp;temperature;humidity
16801;DHT22;8518;53.236;10.384;2024-02-14T00:01:41;5.70;99.90
16801;DHT22;8518;53.236;10.384;2024-02-14T00:04:08;5.30;99.90
16801;DHT22;8518;53.236;10.384;2024-02-14T00:06:36;5.00;99.90
16801;DHT22;8518;53.236;10.384;2024-02-14T00:09:02;4.20;99.90
16801;DHT22;8518;53.236;10.384;2024-02-14T00:14:31;5.40;99.90
16801;DHT22;8518;53.236;10.384;2024-02-14T00:16:58;5.30;99.90
16801;DHT22;8518;53.236;10.384;2024-02-14T00:19:24;5.10;99.90
16801;DHT22;8518;53.236;10.384;2024-02-14T00:21:50;4.70;99.90
16801;DHT22;8518;53.236;10.384;2024-02-14T00:24:15;8.40;99.90
16801;DHT22;8518;53.236;10.384;2024-02-14T00:26:41;7.20;99.90
16801;DHT22;8518;53.236;10.384;2024-02-14T00:29:06;4.70;99.90
16801;DHT22;8518;53.236;10.384;2024-02-14T00:34:42;7.00;99.90
16801;DHT22;8518;53.236;10.384;2024-02-14T00:37:10;5.30;99.90
16801;DHT22;8518;53.236;10.384;2024-02-14T00:39:36;5.30;99.90
16801;DHT22;8518;53.236;10.384;2024-02-14T00:42:01;5.10;99.90
16801;DHT22;8518;53.236;10.384;2024-02-14T00:44:27;5.40;99.90
16801;DHT22;8518;53.236;10.384;2024-02-14T00:46:56;6.20;99.90
16801;DHT22;8518;53.236;10.384;2024-02-14T00:49:24;5.50;99.90
16801;DHT22;8518;53.236;10.384;2024-02-14T00:51:49;4.30;99.90
16801;DHT22;8518;53.236;10.384;2024-02-14T00:54:15;6.80;99.90
16801;DHT22;8518;53.236;10.384;2024-02-14T00:56:40;5.30;99.90
16801;DHT22;8518;53.236;10.384;2024-02-14T00:59:06;6.80;99.90
16801;DHT22;8518;53.236;10.384;2024-02-14T01:04:42;5.60;99.90
16801;DHT22;8518;53.236;10.384;2024-02-14T01:07:08;5.50;99.90
16801;DHT22;8518;53.236;10.384;2024-02-14T01:09:33;4.10;99.90
16801;DHT22;8518;53.236;10.384;2024-02-14T01:11:59;5.40;99.90
16801;DHT22;8518;53.236;10.384;2024-02-14T01:14:24;6.10;99.90
16801;DHT22;8518;53.236;10.384;2024-02-14T01:16:50;5.50;99.90
16801;DHT22;8518;53.236;10.384;2024-02-14T01:19:16;4.70;99.90
16801;DHT22;8518;53.236;10.384;2024-02-14T01:22:00;6.30;99.90
16801;DHT22;8518;53.236;10.384;2024-02-14T01:24:35;6.00;99.90
16801;DHT22;8518;53.236;10.384;2024-02-14T01:27:01;6.20;99.90
16801;DHT22;8518;53.236;10.384;2024-02-14T01:29:28;5.80;99.90
16801;DHT22;8518;53.236;10.384;2024-02-14T01:31:53;4.10;99.90
16801;DHT22;8518;53.236;10.384;2024-02-14T01:34:20;9.00;99.90
16801;DHT22;8518;53.236;10.384;2024-02-14T01:36:45;5.20;99.90
16801;DHT22;8518;53.236;10.384;2024-02-14T01:39:11;4.80;99.90
16801;DHT22;8518;53.236;10.384;2024-02-14T01:44:39;5.80;99.90
16801;DHT22;8518;53.236;10.384;2024-02-14T01:47:05;5.90;99.90
16801;DHT22;8518;53.236;10.384;2024-02-14T01:49:32;8.30;99.90
16801;DHT22;8518;53.236;10.384;2024-02-14T01:51:59;5.90;99.90
16801;DHT22;8518;53.236;10.384;2024-02-14T01:54:25;5.90;99.90
16801;DHT22;8518;53.236;10.384;2024-02-14T01:56:51;5.70;99.90
16801;DHT22;8518;53.236;10.384;2024-02-14T01:59:16;5.60;99.90
16801;DHT22;8518;53.236;10.384;2024-02-14T02:01:43;8.00;99.90
16801;DHT22;8518;53.236;10.384;2024-02-14T02:04:09;3.80;99.90
16801;DHT22;8518;53.236;10.384;2024-02-14T02:06:34;8.10;99.90
16801;DHT22;8518;53.236;10.384;2024-02-14T02:09:00;4.70;99.90
16801;DHT22;8518;53.236;10.384;2024-02-14T02:14:29;5.60;99.90
16801;DHT22;8518;53.236;10.384;2024-02-14T02:16:55;5.10;99.90
16801;DHT22;8518;53.236;10.384;2024-02-14T02:19:20;5.50;99.90
16801;DHT22;8518;53.236;10.384;2024-02-14T02:21:46;6.40;99.90
16801;DHT22;8518;53.236;10.384;2024-02-14T02:24:12;5.30;99.90
16801;DHT22;8518;53.236;10.384;2024-02-14T02:26:37;5.30;99.90
16801;DHT22;8518;53.236;10.384;2024-02-14T02:29:03;5.20;99.90
16801;DHT22;8518;53.236;10.384;2024-02-14T02:34:33;5.50;99.90
16801;DHT22;8518;53.236;10.384;2024-02-14T02:36:58;5.40;99.90
16801;DHT22;8518;53.236;10.384;2024-02-14T02:39:24;5.40;99.90
16801;DHT22;8518;53.236;10.384;2024-02-14T02:41:49;5.20;99.90
16801;DHT22;8518;53.236;10.384;2024-02-14T02:44:15;5.00;99.90
16801;DHT22;8518;53.236;10.384;2024-02-14T02:46:41;5.10;99.90
16801;DHT22;8518;53.236;10.384;2024-02-14T02:49:06;5.30;99.90
16801;DHT22;8518;53.236;10.384;2024-02-14T02:54:34;5.30;99.90
16801;DHT22;8518;53.236;10.384;2024-02-14T03:00:04;5.30;99.90
16801;DHT22;8518;53.236;10.384;2024-02-14T03:02:32;5.30;99.90
16801;DHT22;8518;53.236;10.384;2024-02-14T03:04:59;5.10;99.90
16801;DHT22;8518;53.236;10.384;2024-02-14T03:07:25;5.20;99.90
16801;DHT22;8518;53.236;10.384;2024-02-14T03:12:54;5.30;99.90
16801;DHT22;8518;53.236;10.384;2024-02-14T03:15:20;5.30;99.90
16801;DHT22;8518;53.236;10.384;2024-02-14T03:17:45;4.90;99.90
16801;DHT22;8518;53.236;10.384;2024-02-14T03:23:14;5.50;99.90
16801;DHT22;8518;53.236;10.384;2024-02-14T03:28:43;5.40;99.90
16801;DHT22;8518;53.236;10.384;2024-02-14T03:34:11;5.40;99.90
16801;DHT22;8518;53.236;10.384;2024-02-14T03:36:37;5.40;99.90
16801;DHT22;8518;53.236;10.384;2024-02-14T03:39:03;5.30;99.90
16801;DHT22;8518;53.236;10.384;2024-02-14T03:44:33;5.50;99.90
16801;DHT22;8518;53.236;10.384;2024-02-14T03:46:58;6.00;99.90
16801;DHT22;8518;53.236;10.384;2024-02-14T03:49:25;5.00;99.90
16801;DHT22;8518;53.236;10.384;2024-02-14T03:51:51;5.10;99.90
16801;DHT22;8518;53.236;10.384;2024-02-14T03:54:20;4.80;99.90
16801;DHT22;8518;53.236;10.384;2024-02-14T03:56:45;4.90;99.90
16801;DHT22;8518;53.236;10.384;2024-02-14T03:59:11;6.50;99.90
16801;DHT22;8518;53.236;10.384;2024-02-14T04:04:42;4.90;99.90
16801;DHT22;8518;53.236;10.384;2024-02-14T04:10:11;5.00;99.90
16801;DHT22;8518;53.236;10.384;2024-02-14T04:12:38;5.10;99.90
16801;DHT22;8518;53.236;10.384;2024-02-14T04:15:07;4.80;99.90
16801;DHT22;8518;53.236;10.384;2024-02-14T04:17:32;7.00;99.90
16801;DHT22;8518;53.236;10.384;2024-02-14T04:23:03;5.00;99.90
16801;DHT22;8518;53.236;10.384;2024-02-14T04:25:31;5.10;99.90
16801;DHT22;8518;53.236;10.384;2024-02-14T04:27:56;5.20;99.90
16801;DHT22;8518;53.236;10.384;2024-02-14T04:33:25;5.20;99.90
16801;DHT22;8518;53.236;10.384;2024-02-14T04:35:54;4.70;99.90
16801;DHT22;8518;53.236;10.384;2024-02-14T04:38:20;5.30;99.90
16801;DHT22;8518;53.236;10.384;2024-02-14T04:43:50;5.90;99.90
16801;DHT22;8518;53.236;10.384;2024-02-14T04:46:15;5.20;99.90
16801;DHT22;8518;53.236;10.384;2024-02-14T04:48:41;4.50;99.90
16801;DHT22;8518;53.236;10.384;2024-02-14T04:54:10;5.40;99.90
16801;DHT22;8518;53.236;10.384;2024-02-14T04:56:36;6.60;99.90
16801;DHT22;8518;53.236;10.384;2024-02-14T04:59:01;5.60;99.90
16801;DHT22;8518;53.236;10.384;2024-02-14T05:04:31;5.20;99.90
16801;DHT22;8518;53.236;10.384;2024-02-14T05:10:03;5.20;99.90
16801;DHT22;8518;53.236;10.384;2024-02-14T05:12:29;4.30;99.90
16801;DHT22;8518;53.236;10.384;2024-02-14T05:14:54;4.80;99.90
16801;DHT22;8518;53.236;10.384;2024-02-14T05:17:20;9.30;99.90
16801;DHT22;8518;53.236;10.384;2024-02-14T05:22:49;5.30;99.90
16801;DHT22;8518;53.236;10.384;2024-02-14T05:25:14;6.00;99.90
16801;DHT22;8518;53.236;10.384;2024-02-14T05:27:40;4.50;99.90
16801;DHT22;8518;53.236;10.384;2024-02-14T05:33:09;5.40;99.90
16801;DHT22;8518;53.236;10.384;2024-02-14T05:35:34;7.20;99.90
16801;DHT22;8518;53.236;10.384;2024-02-14T05:38:00;3.50;99.90
16801;DHT22;8518;53.236;10.384;2024-02-14T05:43:29;5.30;99.90
16801;DHT22;8518;53.236;10.384;2024-02-14T05:49:04;5.30;99.90
16801;DHT22;8518;53.236;10.384;2024-02-14T05:54:32;6.80;99.90
16801;DHT22;8518;53.236;10.384;2024-02-14T06:00:02;5.60;99.90
16801;DHT22;8518;53.236;10.384;2024-02-14T06:02:28;5.50;99.90
16801;DHT22;8518;53.236;10.384;2024-02-14T06:04:57;4.90;99.90
16801;DHT22;8518;53.236;10.384;2024-02-14T06:07:24;4.60;99.90
16801;DHT22;8518;53.236;10.384;2024-02-14T06:12:52;5.50;99.90
16801;DHT22;8518;53.236;10.384;2024-02-14T06:15:18;4.20;99.90
16801;DHT22;8518;53.236;10.384;2024-02-14T06:17:43;3.70;99.90
16801;DHT22;8518;53.236;10.384;2024-02-14T06:23:12;5.90;99.90
16801;DHT22;8518;53.236;10.384;2024-02-14T06:25:37;7.30;99.90
16801;DHT22;8518;53.236;10.384;2024-02-14T06:28:03;6.20;99.90
16801;DHT22;8518;53.236;10.384;2024-02-14T06:33:32;5.40;99.90
16801;DHT22;8518;53.236;10.384;2024-02-14T06:39:00;5.60;99.90
16801;DHT22;8518;53.236;10.384;2024-02-14T06:44:29;5.50;99.90
16801;DHT22;8518;53.236;10.384;2024-02-14T06:49:58;5.70;99.90
16801;DHT22;8518;53.236;10.384;2024-02-14T06:52:24;6.10;99.90
16801;DHT22;8518;53.236;10.384;2024-02-14T06:54:51;5.30;99.90
16801;DHT22;8518;53.236;10.384;2024-02-14T06:57:16;5.40;99.90
16801;DHT22;8518;53.236;10.384;2024-02-14T07:02:56;5.80;99.90
16801;DHT22;8518;53.236;10.384;2024-02-14T07:05:23;5.80;99.90
16801;DHT22;8518;53.236;10.384;2024-02-14T07:07:56;4.50;99.90
16801;DHT22;8518;53.236;10.384;2024-02-14T07:13:25;5.90;99.90
16801;DHT22;8518;53.236;10.384;2024-02-14T07:15:50;4.40;99.90
16801;DHT22;8518;53.236;10.384;2024-02-14T07:18:19;8.50;99.90
16801;DHT22;8518;53.236;10.384;2024-02-14T07:23:48;5.90;99.90
16801;DHT22;8518;53.236;10.384;2024-02-14T07:26:14;6.80;99.90
16801;DHT22;8518;53.236;10.384;2024-02-14T07:28:39;5.20;99.90
16801;DHT22;8518;53.236;10.384;2024-02-14T07:34:11;6.80;99.90
16801;DHT22;8518;53.236;10.384;2024-02-14T07:36:48;5.30;99.90
16801;DHT22;8518;53.236;10.384;2024-02-14T07:39:13;6.30;99.90
16801;DHT22;8518;53.236;10.384;2024-02-14T07:44:42;8.10;99.90
16801;DHT22;8518;53.236;10.384;2024-02-14T07:47:07;6.10;99.90
16801;DHT22;8518;53.236;10.384;2024-02-14T07:49:34;5.90;99.90
16801;DHT22;8518;53.236;10.384;2024-02-14T07:51:59;5.90;99.90
16801;DHT22;8518;53.236;10.384;2024-02-14T07:54:26;7.50;99.90
16801;DHT22;8518;53.236;10.384;2024-02-14T07:56:51;4.00;99.90
16801;DHT22;8518;53.236;10.384;2024-02-14T07:59:18;6.10;99.90
16801;DHT22;8518;53.236;10.384;2024-02-14T08:01:45;6.40;99.90
16801;DHT22;8518;53.236;10.384;2024-02-14T08:04:11;6.70;99.90
16801;DHT22;8518;53.236;10.384;2024-02-14T08:06:36;6.20;99.90
16801;DHT22;8518;53.236;10.384;2024-02-14T08:09:02;5.60;99.90
16801;DHT22;8518;53.236;10.384;2024-02-14T08:14:34;6.50;99.90
16801;DHT22;8518;53.236;10.384;2024-02-14T08:17:00;8.20;99.90
16801;DHT22;8518;53.236;10.384;2024-02-14T08:19:26;9.50;99.90
16801;DHT22;8518;53.236;10.384;2024-02-14T08:21:51;7.90;99.90
16801;DHT22;8518;53.236;10.384;2024-02-14T08:24:17;9.10;99.90
16801;DHT22;8518;53.236;10.384;2024-02-14T08:26:42;8.90;99.90
16801;DHT22;8518;53.236;10.384;2024-02-14T08:29:08;7.00;99.90
16801;DHT22;8518;53.236;10.384;2024-02-14T08:34:39;6.80;99.90
16801;DHT22;8518;53.236;10.384;2024-02-14T08:37:05;6.80;99.90
16801;DHT22;8518;53.236;10.384;2024-02-14T08:39:32;6.60;99.90
16801;DHT22;8518;53.236;10.384;2024-02-14T08:41:57;10.60;99.90
16801;DHT22;8518;53.236;10.384;2024-02-14T08:44:23;6.40;99.90
16801;DHT22;8518;53.236;10.384;2024-02-14T08:46:48;7.50;99.90
16801;DHT22;8518;53.236;10.384;2024-02-14T08:49:14;8.20;99.90
16801;DHT22;8518;53.236;10.384;2024-02-14T08:51:39;8.20;99.90
16801;DHT22;8518;53.236;10.384;2024-02-14T08:54:05;7.10;99.90
16801;DHT22;8518;53.236;10.384;2024-02-14T08:56:34;8.40;99.90
16801;DHT22;8518;53.236;10.384;2024-02-14T08:59:00;8.40;99.90
16801;DHT22;8518;53.236;10.384;2024-02-14T09:04:33;7.50;99.90
16801;DHT22;8518;53.236;10.384;2024-02-14T09:10:07;9.50;99.90
16801;DHT22;8518;53.236;10.384;2024-02-14T09:12:33;6.30;99.90
16801;DHT22;8518;53.236;10.384;2024-02-14T09:14:59;6.80;99.90
16801;DHT22;8518;53.236;10.384;2024-02-14T09:17:30;6.80;99.90
16801;DHT22;8518;53.236;10.384;2024-02-14T09:22:59;7.80;99.90
16801;DHT22;8518;53.236;10.384;2024-02-14T09:25:24;7.80;99.90
16801;DHT22;8518;53.236;10.384;2024-02-14T09:27:50;7.10;99.90
16801;DHT22;8518;53.236;10.384;2024-02-14T09:33:19;8.10;99.90
16801;DHT22;8518;53.236;10.384;2024-02-14T09:38:48;8.40;99.90
16801;DHT22;8518;53.236;10.384;2024-02-14T09:44:17;10.50;99.90
16801;DHT22;8518;53.236;10.384;2024-02-14T09:49:49;8.30;99.90
16801;DHT22;8518;53.236;10.384;2024-02-14T09:52:16;7.00;99.90
16801;DHT22;8518;53.236;10.384;2024-02-14T09:54:46;10.30;99.90
16801;DHT22;8518;53.236;10.384;2024-02-14T09:57:11;11.50;99.90
16801;DHT22;8518;53.236;10.384;2024-02-14T09:59:38;9.30;99.90
16801;DHT22;8518;53.236;10.384;2024-02-14T10:02:04;8.60;99.90
16801;DHT22;8518;53.236;10.384;2024-02-14T10:04:30;6.60;99.90
16801;DHT22;8518;53.236;10.384;2024-02-14T10:06:55;11.00;99.90
16801;DHT22;8518;53.236;10.384;2024-02-14T10:09:21;7.20;99.90
16801;DHT22;8518;53.236;10.384;2024-02-14T10:11:51;7.90;99.90
16801;DHT22;8518;53.236;10.384;2024-02-14T10:14:16;9.50;99.90
16801;DHT22;8518;53.236;10.384;2024-02-14T10:16:54;7.90;99.90
16801;DHT22;8518;53.236;10.384;2024-02-14T10:19:19;10.40;99.90
16801;DHT22;8518;53.236;10.384;2024-02-14T10:21:58;7.70;99.90
16801;DHT22;8518;53.236;10.384;2024-02-14T10:24:24;8.70;99.90
16801;DHT22;8518;53.236;10.384;2024-02-14T10:26:50;9.10;99.90
16801;DHT22;8518;53.236;10.384;2024-02-14T10:29:16;7.70;99.90
16801;DHT22;8518;53.236;10.384;2024-02-14T10:31:41;8.30;99.90
16801;DHT22;8518;53.236;10.384;2024-02-14T10:34:07;8.20;99.90
16801;DHT22;8518;53.236;10.384;2024-02-14T10:36:33;8.40;99.90
16801;DHT22;8518;53.236;10.384;2024-02-14T10:39:05;9.80;99.90
16801;DHT22;8518;53.236;10.384;2024-02-14T10:44:35;9.00;99.90
16801;DHT22;8518;53.236;10.384;2024-02-14T10:47:02;11.50;99.90
16801;DHT22;8518;53.236;10.384;2024-02-14T10:49:28;8.30;99.90
16801;DHT22;8518;53.236;10.384;2024-02-14T10:51:54;9.00;99.90
16801;DHT22;8518;53.236;10.384;2024-02-14T10:54:21;8.30;99.90
16801;DHT22;8518;53.236;10.384;2024-02-14T10:56:48;7.50;99.90
16801;DHT22;8518;53.236;10.384;2024-02-14T10:59:16;8.30;99.90
16801;DHT22;8518;53.236;10.384;2024-02-14T11:01:43;12.80;99.90
16801;DHT22;8518;53.236;10.384;2024-02-14T11:04:09;8.70;99.90
16801;DHT22;8518;53.236;10.384;2024-02-14T11:06:44;8.80;99.90
16801;DHT22;8518;53.236;10.384;2024-02-14T11:09:11;9.20;99.90
16801;DHT22;8518;53.236;10.384;2024-02-14T11:14:44;7.50;99.90
16801;DHT22;8518;53.236;10.384;2024-02-14T11:17:12;8.50;99.90
16801;DHT22;8518;53.236;10.384;2024-02-14T11:19:38;8.30;99.90
16801;DHT22;8518;53.236;10.384;2024-02-14T11:24:41;9.70;99.90
16801;DHT22;8518;53.236;10.384;2024-02-14T11:27:12;9.80;99.90
16801;DHT22;8518;53.236;10.384;2024-02-14T11:29:41;9.00;99.90
16801;DHT22;8518;53.236;10.384;2024-02-14T11:32:16;9.80;99.90
16801;DHT22;8518;53.236;10.384;2024-02-14T11:34:54;11.70;99.90
16801;DHT22;8518;53.236;10.384;2024-02-14T11:37:27;10.40;99.90
16801;DHT22;8518;53.236;10.384;2024-02-14T11:43:04;10.00;99.90
16801;DHT22;8518;53.236;10.384;2024-02-14T11:45:30;12.20;99.90
16801;DHT22;8518;53.236;10.384;2024-02-14T11:47:55;11.30;99.90
16801;DHT22;8518;53.236;10.384;2024-02-14T11:53:39;10.10;99.90
16801;DHT22;8518;53.236;10.384;2024-02-14T11:56:06;10.10;99.90
16801;DHT22;8518;53.236;10.384;2024-02-14T11:58:34;9.70;99.90
16801;DHT22;8518;53.236;10.384;2024-02-14T12:04:10;10.30;99.90
16801;DHT22;8518;53.236;10.384;2024-02-14T12:06:36;7.80;99.90
16801;DHT22;8518;53.236;10.384;2024-02-14T12:09:02;9.40;99.90
16801;DHT22;8518;53.236;10.384;2024-02-14T12:14:33;10.20;99.90
16801;DHT22;8518;53.236;10.384;2024-02-14T12:17:03;10.20;99.90
16801;DHT22;8518;53.236;10.384;2024-02-14T12:19:31;10.40;99.90
16801;DHT22;8518;53.236;10.384;2024-02-14T12:22:00;11.60;99.90
16801;DHT22;8518;53.236;10.384;2024-02-14T12:24:32;9.20;99.90
16801;DHT22;8518;53.236;10.384;2024-02-14T12:27:04;7.50;99.90
16801;DHT22;8518;53.236;10.384;2024-02-14T12:29:29;11.10;99.90
16801;DHT22;8518;53.236;10.384;2024-02-14T12:32:07;10.20;99.90
16801;DHT22;8518;53.236;10.384;2024-02-14T12:34:33;10.20;99.90
16801;DHT22;8518;53.236;10.384;2024-02-14T12:36:59;10.20;99.90
16801;DHT22;8518;53.236;10.384;2024-02-14T12:39:28;12.70;99.90
16801;DHT22;8518;53.236;10.384;2024-02-14T12:41:54;10.70;99.90
16801;DHT22;8518;53.236;10.384;2024-02-14T12:44:20;9.20;99.90
16801;DHT22;8518;53.236;10.384;2024-02-14T12:46:48;8.50;99.90
16801;DHT22;8518;53.236;10.384;2024-02-14T12:49:13;11.10;99.90
16801;DHT22;8518;53.236;10.384;2024-02-14T12:51:39;12.70;99.90
16801;DHT22;8518;53.236;10.384;2024-02-14T12:54:04;9.50;99.90
16801;DHT22;8518;53.236;10.384;2024-02-14T12:56:31;10.30;99.90
16801;DHT22;8518;53.236;10.384;2024-02-14T12:58:57;10.00;99.90
16801;DHT22;8518;53.236;10.384;2024-02-14T13:04:25;10.60;99.90
16801;DHT22;8518;53.236;10.384;2024-02-14T13:06:51;12.60;99.90
16801;DHT22;8518;53.236;10.384;2024-02-14T13:09:16;10.00;99.90
16801;DHT22;8518;53.236;10.384;2024-02-14T13:11:42;10.10;99.90
16801;DHT22;8518;53.236;10.384;2024-02-14T13:14:08;10.50;99.90
16801;DHT22;8518;53.236;10.384;2024-02-14T13:16:34;10.20;99.90
16801;DHT22;8518;53.236;10.384;2024-02-14T13:18:59;10.10;99.90
16801;DHT22;8518;53.236;10.384;2024-02-14T13:24:28;10.60;99.90
16801;DHT22;8518;53.236;10.384;2024-02-14T13:26:53;13.90;99.90
16801;DHT22;8518;53.236;10.384;2024-02-14T13:29:19;10.00;99.90
16801;DHT22;8518;53.236;10.384;2024-02-14T13:31:45;12.60;99.90
16801;DHT22;8518;53.236;10.384;2024-02-14T13:34:13;13.30;99.90
16801;DHT22;8518;53.236;10.384;2024-02-14T13:36:40;9.80;99.90
16801;DHT22;8518;53.236;10.384;2024-02-14T13:39:07;12.40;99.90
16801;DHT22;8518;53.236;10.384;2024-02-14T13:44:36;10.60;99.90
16801;DHT22;8518;53.236;10.384;2024-02-14T13:47:01;10.10;99.90
16801;DHT22;8518;53.236;10.384;2024-02-14T13:49:31;10.50;99.90
16801;DHT22;8518;53.236;10.384;2024-02-14T13:52:00;10.70;99.90
16801;DHT22;8518;53.236;10.384;2024-02-14T13:54:25;8.70;99.90
16801;DHT22;8518;53.236;10.384;2024-02-14T13:56:51;11.00;99.90
16801;DHT22;8518;53.236;10.384;2024-02-14T13:59:17;10.70;99.90
16801;DHT22;8518;53.236;10.384;2024-02-14T14:01:44;12.70;99.90
16801;DHT22;8518;53.236;10.384;2024-02-14T14:04:11;10.70;99.90
16801;DHT22;8518;53.236;10.384;2024-02-14T14:06:36;9.30;99.90
16801;DHT22;8518;53.236;10.384;2024-02-14T14:09:02;10.20;99.90
16801;DHT22;8518;53.236;10.384;2024-02-14T14:14:36;10.70;99.90
16801;DHT22;8518;53.236;10.384;2024-02-14T14:17:01;12.20;99.90
16801;DHT22;8518;53.236;10.384;2024-02-14T14:19:27;10.40;99.90
16801;DHT22;8518;53.236;10.384;2024-02-14T14:21:52;9.40;99.90
16801;DHT22;8518;53.236;10.384;2024-02-14T14:24:21;10.50;99.90
16801;DHT22;8518;53.236;10.384;2024-02-14T14:26:46;10.50;99.90
16801;DHT22;8518;53.236;10.384;2024-02-14T14:29:12;10.20;99.90
16801;DHT22;8518;53.236;10.384;2024-02-14T14:35:08;10.00;99.90
16801;DHT22;8518;53.236;10.384;2024-02-14T14:37:35;10.80;99.90
16801;DHT22;8518;53.236;10.384;2024-02-14T14:43:04;10.80;99.90
16801;DHT22;8518;53.236;10.384;2024-02-14T14:45:29;10.70;99.90
16801;DHT22;8518;53.236;10.384;2024-02-14T14:47:56;10.30;99.90
16801;DHT22;8518;53.236;10.384;2024-02-14T14:53:43;10.70;99.90
16801;DHT22;8518;53.236;10.384;2024-02-14T14:56:09;10.70;99.90
16801;DHT22;8518;53.236;10.384;2024-02-14T14:58:35;12.20;99.90
16801;DHT22;8518;53.236;10.384;2024-02-14T15:04:04;10.70;99.90
16801;DHT22;8518;53.236;10.384;2024-02-14T15:09:35;9.90;99.90
16801;DHT22;8518;53.236;10.384;2024-02-14T15:12:00;11.00;99.90
16801;DHT22;8518;53.236;10.384;2024-02-14T15:14:26;10.40;99.90
16801;DHT22;8518;53.236;10.384;2024-02-14T15:16:51;12.20;99.90
16801;DHT22;8518;53.236;10.384;2024-02-14T15:19:17;13.00;99.90
16801;DHT22;8518;53.236;10.384;2024-02-14T15:21:43;12.90;99.90
16801;DHT22;8518;53.236;10.384;2024-02-14T15:24:09;13.60;99.90
16801;DHT22;8518;53.236;10.384;2024-02-14T15:26:34;10.80;99.90
16801;DHT22;8518;53.236;10.384;2024-02-14T15:29:17;10.10;99.90
16801;DHT22;8518;53.236;10.384;2024-02-14T15:32:02;12.40;99.90
16801;DHT22;8518;53.236;10.384;2024-02-14T15:34:46;11.30;99.90
16801;DHT22;8518;53.236;10.384;2024-02-14T15:37:12;13.00;99.90
16801;DHT22;8518;53.236;10.384;2024-02-14T15:39:40;9.00;99.90
16801;DHT22;8518;53.236;10.384;2024-02-14T15:42:06;9.20;99.90
16801;DHT22;8518;53.236;10.384;2024-02-14T15:44:32;10.60;99.90
16801;DHT22;8518;53.236;10.384;2024-02-14T15:46:57;11.50;99.90
16801;DHT22;8518;53.236;10.384;2024-02-14T15:49:23;9.80;99.90
16801;DHT22;8518;53.236;10.384;2024-02-14T15:51:49;10.60;99.90
16801;DHT22;8518;53.236;10.384;2024-02-14T15:54:15;10.60;99.90
16801;DHT22;8518;53.236;10.384;2024-02-14T15:56:42;12.50;99.90
16801;DHT22;8518;53.236;10.384;2024-02-14T15:59:07;12.20;99.90
16801;DHT22;8518;53.236;10.384;2024-02-14T16:04:37;10.60;99.90
16801;DHT22;8518;53.236;10.384;2024-02-14T16:07:03;8.80;99.90
16801;DHT22;8518;53.236;10.384;2024-02-14T16:09:29;10.10;99.90
16801;DHT22;8518;53.236;10.384;2024-02-14T16:11:55;10.60;99.90
16801;DHT22;8518;53.236;10.384;2024-02-14T16:14:23;9.80;99.90
16801;DHT22;8518;53.236;10.384;2024-02-14T16:16:49;10.50;99.90
16801;DHT22;8518;53.236;10.384;2024-02-14T16:19:17;8.10;99.90
16801;DHT22;8518;53.236;10.384;2024-02-14T16:21:43;11.70;99.90
16801;DHT22;8518;53.236;10.384;2024-02-14T16:24:11;8.90;99.90
16801;DHT22;8518;53.236;10.384;2024-02-14T16:26:37;11.10;99.90
16801;DHT22;8518;53.236;10.384;2024-02-14T16:29:02;10.40;99.90
16801;DHT22;8518;53.236;10.384;2024-02-14T16:34:31;10.50;99.90
16801;DHT22;8518;53.236;10.384;2024-02-14T16:37:06;11.20;99.90
16801;DHT22;8518;53.236;10.384;2024-02-14T16:39:35;11.50;99.90
16801;DHT22;8518;53.236;10.384;2024-02-14T16:42:00;11.90;99.90
16801;DHT22;8518;53.236;10.384;2024-02-14T16:44:27;10.60;99.90
16801;DHT22;8518;53.236;10.384;2024-02-14T16:46:53;9.90;99.90
16801;DHT22;8518;53.236;10.384;2024-02-14T16:49:19;9.70;99.90
16801;DHT22;8518;53.236;10.384;2024-02-14T16:51:45;9.00;99.90
16801;DHT22;8518;53.236;10.384;2024-02-14T16:54:11;10.30;99.90
16801;DHT22;8518;53.236;10.384;2024-02-14T16:56:36;11.90;99.90
16801;DHT22;8518;53.236;10.384;2024-02-14T16:59:05;9.50;99.90
16801;DHT22;8518;53.236;10.384;2024-02-14T17:04:34;10.70;99.90
16801;DHT22;8518;53.236;10.384;2024-02-14T17:10:04;12.10;99.90
16801;DHT22;8518;53.236;10.384;2024-02-14T17:12:30;10.90;99.90
16801;DHT22;8518;53.236;10.384;2024-02-14T17:14:56;14.30;99.90
16801;DHT22;8518;53.236;10.384;2024-02-14T17:17:22;8.80;99.90
16801;DHT22;8518;53.236;10.384;2024-02-14T17:22:51;11.30;99.90
16801;DHT22;8518;53.236;10.384;2024-02-14T17:28:20;10.60;99.90
16801;DHT22;8518;53.236;10.384;2024-02-14T17:33:48;12.90;99.90
16801;DHT22;8518;53.236;10.384;2024-02-14T17:36:15;10.60;99.90
16801;DHT22;8518;53.236;10.384;2024-02-14T17:38:44;11.40;99.90
16801;DHT22;8518;53.236;10.384;2024-02-14T17:44:13;9.10;99.90
16801;DHT22;8518;53.236;10.384;2024-02-14T17:49:42;10.20;99.90
16801;DHT22;8518;53.236;10.384;2024-02-14T17:52:08;10.40;99.90
16801;DHT22;8518;53.236;10.384;2024-02-14T17:54:34;10.00;99.90
16801;DHT22;8518;53.236;10.384;2024-02-14T17:57:02;9.60;99.90
16801;DHT22;8518;53.236;10.384;2024-02-14T17:59:27;11.30;99.90
16801;DHT22;8518;53.236;10.384;2024-02-14T18:01:53;10.60;99.90
16801;DHT22;8518;53.236;10.384;2024-02-14T18:04:18;8.90;99.90
16801;DHT22;8518;53.236;10.384;2024-02-14T18:06:45;14.40;99.90
16801;DHT22;8518;53.236;10.384;2024-02-14T18:09:10;10.00;99.90
16801;DHT22;8518;53.236;10.384;2024-02-14T18:14:40;11.10;99.90
16801;DHT22;8518;53.236;10.384;2024-02-14T18:17:08;11.20;99.90
16801;DHT22;8518;53.236;10.384;2024-02-14T18:19:33;11.10;99.90
16801;DHT22;8518;53.236;10.384;2024-02-14T18:21:59;9.90;99.90
16801;DHT22;8518;53.236;10.384;2024-02-14T18:24:24;9.60;99.90
16801;DHT22;8518;53.236;10.384;2024-02-14T18:26:50;7.40;99.90
16801;DHT22;8518;53.236;10.384;2024-02-14T18:29:15;8.80;99.90
16801;DHT22;8518;53.236;10.384;2024-02-14T18:31:41;9.50;99.90
16801;DHT22;8518;53.236;10.384;2024-02-14T18:34:07;9.70;99.90
16801;DHT22;8518;53.236;10.384;2024-02-14T18:36:33;10.10;99.90
16801;DHT22;8518;53.236;10.384;2024-02-14T18:38:59;10.00;99.90
16801;DHT22;8518;53.236;10.384;2024-02-14T18:44:28;11.00;99.90
16801;DHT22;8518;53.236;10.384;2024-02-14T18:49:57;10.60;99.90
16801;DHT22;8518;53.236;10.384;2024-02-14T18:52:22;13.60;99.90
16801;DHT22;8518;53.236;10.384;2024-02-14T18:54:48;11.80;99.90
16801;DHT22;8518;53.236;10.384;2024-02-14T18:57:14;13.90;99.90
16801;DHT22;8518;53.236;10.384;2024-02-14T18:59:39;11.70;99.90
16801;DHT22;8518;53.236;10.384;2024-02-14T19:02:07;12.70;99.90
16801;DHT22;8518;53.236;10.384;2024-02-14T19:04:34;12.60;99.90
16801;DHT22;8518;53.236;10.384;2024-02-14T19:07:02;9.20;99.90
16801;DHT22;8518;53.236;10.384;2024-02-14T19:09:28;10.70;99.90
16801;DHT22;8518;53.236;10.384;2024-02-14T19:12:01;10.90;99.90
16801;DHT22;8518;53.236;10.384;2024-02-14T19:14:27;11.10;99.90
16801;DHT22;8518;53.236;10.384;2024-02-14T19:16:57;10.60;99.90
16801;DHT22;8518;53.236;10.384;2024-02-14T19:19:23;12.60;99.90
16801;DHT22;8518;53.236;10.384;2024-02-14T19:21:50;13.30;99.90
16801;DHT22;8518;53.236;10.384;2024-02-14T19:24:16;11.90;99.90
16801;DHT22;8518;53.236;10.384;2024-02-14T19:26:41;10.70;99.90